Ash Flat, AR

5:41 AM CDT on July 24, 2014 (GMT -0500)
Horseshoe Bend (KARHORSE2) Elev 787 ft | 36.22 °N, 91.72 °W | Change Station

Current weather conditions updated 6 seconds ago

Overcast
Overcast
66.2 °F
Feels Like 66.2 °F
N
1.0
Wind Variable Wind from NE
Gusts 2.0 mph

Today is forecast to be Much Cooler than yesterday.

Today
High -- | Low -- °F
--% Chance of Precip.
Yesterday
High -- | Low -- °F
Precip. -- in
6:07 AM 8:18 PM
Waning Crescent, 6% visible
Pressure 30.06 in
Visibility 10.0 miles
Clouds Overcast 2300 ft
Dew Point 65 °F
Humidity 96%
Rainfall 0.00 in
Snow Depth Not available.
UV 0 out of 12
Pollen 3.80 out of 12
Air Quality Not available.
Flu Activity Not available.
METAR KBVX 241035Z AUTO 00000KT 10SM OVC023 20/20 A3006 RMK AO1

More Conditions Fewer Conditions

Pressure 30.06 in
Visibility 10.0 miles
Clouds Overcast 2300 ft
Dew Point 65 °F
Humidity 96%
Rainfall 0.00 in
Snow Depth Not available.
UV 0 out of 12
Pollen 3.80 out of 12
Air Quality Not available.
Flu Activity Not available.
METAR KBVX 241035Z AUTO 00000KT 10SM OVC023 20/20 A3006 RMK AO1

More Conditions Fewer Conditions

10-Day Weather Forecast

Almanac

Astronomy

Jul. 24, 2014 Rise Set
Actual Time 6:07 AM CDT 8:18 PM CDT
Civil Twilight 5:38 AM CDT 8:47 PM CDT
Nautical Twilight 5:02 AM CDT 9:22 PM CDT
Astronomical Twilight 4:24 AM CDT 10:00 PM CDT
Moon 4:14 AM CDT 6:34 PM CDT
Length of Visible Light 15h 09m
Length of Day
14h 11m
Tomorrow will be 1m 30s shorter.
Waning Crescent, 6% of the Moon is Illuminated
Today
Waning Crescent
Jul 26
New
Aug 3
First Quarter
Aug 10
Full
Aug 17
Last Quarter

Today's Extremes

State Highs State Lows

Community

WunderPhotos

Upload Photos

1,736,966 photos uploaded!

Nearby

Snow Depth

Station Depth Elevation
No new snow has been reported.

Earthquake Activity

City Distance Mag. Time & Date
No recent earthquake activity has been reported nearby.
Minimum magnitude displayed is 2.5.

Coastal Water Temperatures

Place Temperature
No Stations Reporting

Nearby Weather Stations

Station Location Temp. Dew Point Humidity Wind Precip. Elev Updated Type
Horseshoe Bend, Horseshoe Bend, AR 66.2 °F 65 °F 96% NE  at  1.0 mph 0.00 in / hr 787 ft 5:41 AM CDT Rapid Fire
Rural Ravenden Springs, Ravenden Springs, AR 67.1 °F 42 °F 40% NE  at  0.0 mph 0.00 in / hr 605 ft 5:41 AM CDT Rapid Fire

Show More Stations Show Fewer Stations